Portada
METAR-TAF:

METAR-TAF

Aeroports :

Base aèria

Shizuhama, Japó

latitud: 34-49N, longitud: 138-18E, altitud: 7 m

Observació

L'informe es va fer fa 12 hores i 14 minuts, a les 16:11 UTC
Vent 3 kt del Oest, variant entre Oest/Sud-Oest i Nord-Oest
Temperatura 12°C
Humitat 62%
Pressió 1008 hPa
Visibilitat 10 km o més
Escasses núvols a una alçada de 2000 ft
Cel ennuvolat a una alçada de 2500 ft
Cel ennuvolat

METAR: RJNY 221611Z 27003KT 240V310 9999 FEW020 BKN025 BKN/// 12/05 Q1008 RMK 1CU020 6CU025 A2977

Hora: 13:25 (04:25 UTC)


TAF: manca

Observacions i pronòstics meteorològics de més de 4000 aeroports (METAR i TAF).

Les estacions disponibles són els punts grocs i vermells al mapa.

Posi el ratolí al punt desitjat per veure el nom de l'estació.

Feu clic per veure les observacions i els pronòstics meteorològics.

Per canviar el mapa: feu clic els botons verds amb una creu de color negre per apropar; al botó verd amb un guió per allunyar la imatge; o en les fletxes verdes per a mapes adjacents.


METAR-TAF: